sensor_id;sensor_type;location;lat;lon;timestamp;pressure;altitude;pressure_sealevel;temperature;humidity
46506;BME280;32220;49.808;9.968;2023-08-30T00:01:48;98183.19;;;16.21;77.42
46506;BME280;32220;49.808;9.968;2023-08-30T00:04:15;98196.25;;;16.24;78.01
46506;BME280;32220;49.808;9.968;2023-08-30T00:06:43;98194.06;;;16.19;78.05
46506;BME280;32220;49.808;9.968;2023-08-30T00:09:11;98188.28;;;16.14;77.89
46506;BME280;32220;49.808;9.968;2023-08-30T00:11:39;98186.19;;;16.08;77.59
46506;BME280;32220;49.808;9.968;2023-08-30T00:14:08;98190.16;;;16.04;77.64
46506;BME280;32220;49.808;9.968;2023-08-30T00:16:35;98184.25;;;16.00;78.41
46506;BME280;32220;49.808;9.968;2023-08-30T00:19:04;98188.22;;;15.96;78.25
46506;BME280;32220;49.808;9.968;2023-08-30T00:21:32;98188.66;;;15.92;78.45
46506;BME280;32220;49.808;9.968;2023-08-30T00:24:00;98164.41;;;15.75;78.24
46506;BME280;32220;49.808;9.968;2023-08-30T00:26:27;98185.56;;;15.87;78.28
46506;BME280;32220;49.808;9.968;2023-08-30T00:28:56;98178.69;;;15.84;78.60
46506;BME280;32220;49.808;9.968;2023-08-30T00:31:25;98186.03;;;15.82;78.66
46506;BME280;32220;49.808;9.968;2023-08-30T00:33:52;98185.31;;;15.80;79.11
46506;BME280;32220;49.808;9.968;2023-08-30T00:36:19;98181.94;;;15.78;78.96
46506;BME280;32220;49.808;9.968;2023-08-30T00:38:48;98177.59;;;15.77;78.96
46506;BME280;32220;49.808;9.968;2023-08-30T00:41:15;98183.91;;;15.76;78.70
46506;BME280;32220;49.808;9.968;2023-08-30T00:43:43;98182.25;;;15.75;78.62
46506;BME280;32220;49.808;9.968;2023-08-30T00:46:11;98181.53;;;15.73;78.56
46506;BME280;32220;49.808;9.968;2023-08-30T00:48:40;98187.00;;;15.71;78.33
46506;BME280;32220;49.808;9.968;2023-08-30T00:51:09;98179.19;;;15.70;78.37
46506;BME280;32220;49.808;9.968;2023-08-30T00:53:36;98181.28;;;15.66;78.49
46506;BME280;32220;49.808;9.968;2023-08-30T00:56:04;98178.75;;;15.65;78.37
46506;BME280;32220;49.808;9.968;2023-08-30T00:58:32;98176.38;;;15.62;78.27
46506;BME280;32220;49.808;9.968;2023-08-30T01:00:59;98187.19;;;15.60;78.23
46506;BME280;32220;49.808;9.968;2023-08-30T01:03:27;98179.50;;;15.57;78.45
46506;BME280;32220;49.808;9.968;2023-08-30T01:05:56;98179.88;;;15.53;78.94
46506;BME280;32220;49.808;9.968;2023-08-30T01:08:24;98177.06;;;15.54;81.63
46506;BME280;32220;49.808;9.968;2023-08-30T01:10:58;98170.88;;;15.54;81.29
46506;BME280;32220;49.808;9.968;2023-08-30T01:13:29;98168.22;;;15.54;81.31
46506;BME280;32220;49.808;9.968;2023-08-30T01:15:57;98168.78;;;15.48;80.87
46506;BME280;32220;49.808;9.968;2023-08-30T01:18:26;98167.50;;;15.52;80.67
46506;BME280;32220;49.808;9.968;2023-08-30T01:20:56;98169.47;;;15.50;80.65
46506;BME280;32220;49.808;9.968;2023-08-30T01:23:39;98173.13;;;15.49;80.56
46506;BME280;32220;49.808;9.968;2023-08-30T01:26:11;98169.75;;;15.46;80.32
46506;BME280;32220;49.808;9.968;2023-08-30T01:28:44;98174.41;;;15.44;80.10
46506;BME280;32220;49.808;9.968;2023-08-30T01:31:14;98171.06;;;15.42;79.99
46506;BME280;32220;49.808;9.968;2023-08-30T01:33:43;98177.66;;;15.38;80.45
46506;BME280;32220;49.808;9.968;2023-08-30T01:36:12;98178.75;;;15.36;80.58
46506;BME280;32220;49.808;9.968;2023-08-30T01:38:41;98187.06;;;15.33;80.65
46506;BME280;32220;49.808;9.968;2023-08-30T01:41:09;98182.16;;;15.28;80.77
46506;BME280;32220;49.808;9.968;2023-08-30T01:43:37;98175.41;;;15.24;80.72
46506;BME280;32220;49.808;9.968;2023-08-30T01:46:07;98179.38;;;15.20;80.68
46506;BME280;32220;49.808;9.968;2023-08-30T01:48:35;98173.59;;;15.15;80.74
46506;BME280;32220;49.808;9.968;2023-08-30T01:51:03;98181.59;;;15.15;80.33
46506;BME280;32220;49.808;9.968;2023-08-30T01:53:32;98185.53;;;15.11;80.39
46506;BME280;32220;49.808;9.968;2023-08-30T01:55:59;98138.66;;;14.80;80.48
46506;BME280;32220;49.808;9.968;2023-08-30T01:58:27;98187.06;;;15.04;80.16
46506;BME280;32220;49.808;9.968;2023-08-30T02:00:55;98186.38;;;15.02;80.23
46506;BME280;32220;49.808;9.968;2023-08-30T02:03:24;98189.16;;;15.00;80.43
46506;BME280;32220;49.808;9.968;2023-08-30T02:06:09;98186.38;;;15.02;80.17
46506;BME280;32220;49.808;9.968;2023-08-30T02:08:41;98189.03;;;15.02;80.16
46506;BME280;32220;49.808;9.968;2023-08-30T02:11:15;98180.06;;;15.03;80.75
46506;BME280;32220;49.808;9.968;2023-08-30T02:13:45;98183.44;;;15.05;81.84
46506;BME280;32220;49.808;9.968;2023-08-30T02:16:13;98176.28;;;15.05;81.75
46506;BME280;32220;49.808;9.968;2023-08-30T02:18:44;98177.97;;;15.06;81.30
46506;BME280;32220;49.808;9.968;2023-08-30T02:21:12;98179.78;;;15.06;81.72
46506;BME280;32220;49.808;9.968;2023-08-30T02:23:40;98181.47;;;15.07;81.57
46506;BME280;32220;49.808;9.968;2023-08-30T02:26:07;98184.13;;;15.07;81.17
46506;BME280;32220;49.808;9.968;2023-08-30T02:28:35;98182.16;;;15.09;81.17
46506;BME280;32220;49.808;9.968;2023-08-30T02:31:06;98180.19;;;15.11;81.13
46506;BME280;32220;49.808;9.968;2023-08-30T02:33:33;98181.88;;;15.12;80.86
46506;BME280;32220;49.808;9.968;2023-08-30T02:36:05;98185.25;;;15.14;80.77
46506;BME280;32220;49.808;9.968;2023-08-30T02:38:34;98176.25;;;15.15;80.78
46506;BME280;32220;49.808;9.968;2023-08-30T02:41:01;98188.63;;;15.16;80.31
46506;BME280;32220;49.808;9.968;2023-08-30T02:43:29;98192.97;;;15.17;80.20
46506;BME280;32220;49.808;9.968;2023-08-30T02:45:56;98194.66;;;15.18;80.08
46506;BME280;32220;49.808;9.968;2023-08-30T02:48:24;98185.69;;;15.19;80.17
46506;BME280;32220;49.808;9.968;2023-08-30T02:50:51;98191.84;;;15.20;79.91
46506;BME280;32220;49.808;9.968;2023-08-30T02:53:20;98188.63;;;15.16;79.85
46506;BME280;32220;49.808;9.968;2023-08-30T02:55:48;98188.88;;;15.23;79.70
46506;BME280;32220;49.808;9.968;2023-08-30T02:58:15;98187.91;;;15.24;79.62
46506;BME280;32220;49.808;9.968;2023-08-30T03:00:43;98189.59;;;15.25;79.86
46506;BME280;32220;49.808;9.968;2023-08-30T03:03:10;98179.91;;;15.24;79.60
46506;BME280;32220;49.808;9.968;2023-08-30T03:05:38;98173.59;;;15.25;79.99
46506;BME280;32220;49.808;9.968;2023-08-30T03:08:06;98167.00;;;15.19;79.59
46506;BME280;32220;49.808;9.968;2023-08-30T03:10:35;98179.50;;;15.28;80.02
46506;BME280;32220;49.808;9.968;2023-08-30T03:13:03;98186.50;;;15.29;79.96
46506;BME280;32220;49.808;9.968;2023-08-30T03:15:32;98131.63;;;14.98;81.04
46506;BME280;32220;49.808;9.968;2023-08-30T03:18:01;98187.22;;;15.31;80.79
46506;BME280;32220;49.808;9.968;2023-08-30T03:20:28;98175.00;;;15.29;80.46
46506;BME280;32220;49.808;9.968;2023-08-30T03:22:56;98172.31;;;15.29;81.43
46506;BME280;32220;49.808;9.968;2023-08-30T03:25:24;98173.88;;;15.31;81.16
46506;BME280;32220;49.808;9.968;2023-08-30T03:27:52;98163.06;;;15.23;81.09
46506;BME280;32220;49.808;9.968;2023-08-30T03:30:20;98177.38;;;15.32;81.34
46506;BME280;32220;49.808;9.968;2023-08-30T03:32:47;98164.75;;;15.24;81.69
46506;BME280;32220;49.808;9.968;2023-08-30T03:35:16;98182.00;;;15.30;81.68
46506;BME280;32220;49.808;9.968;2023-08-30T03:37:43;98176.69;;;15.30;81.92
46506;BME280;32220;49.808;9.968;2023-08-30T03:40:11;98171.47;;;15.28;81.78
46506;BME280;32220;49.808;9.968;2023-08-30T03:42:39;98165.00;;;15.21;81.38
46506;BME280;32220;49.808;9.968;2023-08-30T03:45:09;98160.69;;;15.20;81.38
46506;BME280;32220;49.808;9.968;2023-08-30T03:47:36;98178.50;;;15.29;81.25
46506;BME280;32220;49.808;9.968;2023-08-30T03:50:06;98175.84;;;15.29;81.10
46506;BME280;32220;49.808;9.968;2023-08-30T03:52:35;98161.38;;;15.22;81.17
46506;BME280;32220;49.808;9.968;2023-08-30T03:55:03;98159.69;;;15.21;81.11
46506;BME280;32220;49.808;9.968;2023-08-30T03:57:30;98172.31;;;15.29;81.15
46506;BME280;32220;49.808;9.968;2023-08-30T03:59:58;98175.84;;;15.29;81.21
46506;BME280;32220;49.808;9.968;2023-08-30T04:02:26;98175.84;;;15.29;80.84
46506;BME280;32220;49.808;9.968;2023-08-30T04:04:55;98182.16;;;15.28;80.91
46506;BME280;32220;49.808;9.968;2023-08-30T04:07:22;98176.81;;;15.28;81.22
46506;BME280;32220;49.808;9.968;2023-08-30T04:09:50;98173.16;;;15.29;80.80
46506;BME280;32220;49.808;9.968;2023-08-30T04:12:17;98173.16;;;15.29;80.84
46506;BME280;32220;49.808;9.968;2023-08-30T04:14:45;98172.31;;;15.29;80.71
46506;BME280;32220;49.808;9.968;2023-08-30T04:17:12;98172.31;;;15.29;80.48
46506;BME280;32220;49.808;9.968;2023-08-30T04:19:41;98163.47;;;15.28;80.45
46506;BME280;32220;49.808;9.968;2023-08-30T04:22:09;98163.47;;;15.28;80.68
46506;BME280;32220;49.808;9.968;2023-08-30T04:24:36;98158.16;;;15.28;80.67
46506;BME280;32220;49.808;9.968;2023-08-30T04:27:04;98154.06;;;15.24;80.57
46506;BME280;32220;49.808;9.968;2023-08-30T04:29:33;98147.88;;;15.24;80.39
46506;BME280;32220;49.808;9.968;2023-08-30T04:32:00;98158.84;;;15.30;80.40
46506;BME280;32220;49.808;9.968;2023-08-30T04:34:28;98165.88;;;15.31;80.55
46506;BME280;32220;49.808;9.968;2023-08-30T04:36:58;98163.88;;;15.33;80.35
46506;BME280;32220;49.808;9.968;2023-08-30T04:39:26;98157.72;;;15.33;80.61
46506;BME280;32220;49.808;9.968;2023-08-30T04:41:54;98162.91;;;15.34;80.43
46506;BME280;32220;49.808;9.968;2023-08-30T04:44:22;98154.03;;;15.34;80.54
46506;BME280;32220;49.808;9.968;2023-08-30T04:46:51;98162.47;;;15.39;80.33
46506;BME280;32220;49.808;9.968;2023-08-30T04:49:21;98158.81;;;15.40;80.69
46506;BME280;32220;49.808;9.968;2023-08-30T04:51:48;98158.56;;;15.43;80.59
46506;BME280;32220;49.808;9.968;2023-08-30T04:54:17;98156.41;;;15.46;80.75
46506;BME280;32220;49.808;9.968;2023-08-30T04:56:45;98149.69;;;15.42;80.58
46506;BME280;32220;49.808;9.968;2023-08-30T04:59:12;98172.84;;;15.52;80.79
46506;BME280;32220;49.808;9.968;2023-08-30T05:01:43;98163.03;;;15.52;80.86
46506;BME280;32220;49.808;9.968;2023-08-30T05:04:11;98167.28;;;15.55;80.60
46506;BME280;32220;49.808;9.968;2023-08-30T05:06:39;98165.31;;;15.57;80.69
46506;BME280;32220;49.808;9.968;2023-08-30T05:09:06;98170.63;;;15.57;80.95
46506;BME280;32220;49.808;9.968;2023-08-30T05:11:36;98174.81;;;15.59;80.88
46506;BME280;32220;49.808;9.968;2023-08-30T05:14:04;98169.06;;;15.64;80.89
46506;BME280;32220;49.808;9.968;2023-08-30T05:16:32;98154.63;;;15.57;80.50
46506;BME280;32220;49.808;9.968;2023-08-30T05:19:00;98163.84;;;15.72;80.43
46506;BME280;32220;49.808;9.968;2023-08-30T05:21:28;98146.44;;;15.68;80.43
46506;BME280;32220;49.808;9.968;2023-08-30T05:23:55;98154.28;;;15.79;80.59
46506;BME280;32220;49.808;9.968;2023-08-30T05:26:23;98144.56;;;15.78;80.26
46506;BME280;32220;49.808;9.968;2023-08-30T05:28:52;98156.47;;;15.93;80.46
46506;BME280;32220;49.808;9.968;2023-08-30T05:31:20;98166.56;;;15.99;80.12
46506;BME280;32220;49.808;9.968;2023-08-30T05:34:23;98167.97;;;16.03;80.26
46506;BME280;32220;49.808;9.968;2023-08-30T05:37:13;98170.72;;;16.11;80.31
46506;BME280;32220;49.808;9.968;2023-08-30T05:40:06;98157.78;;;16.16;80.19
46506;BME280;32220;49.808;9.968;2023-08-30T05:42:34;98157.16;;;16.23;80.19
46506;BME280;32220;49.808;9.968;2023-08-30T05:45:03;98159.41;;;16.27;80.59
46506;BME280;32220;49.808;9.968;2023-08-30T05:47:31;98161.66;;;16.32;80.28
46506;BME280;32220;49.808;9.968;2023-08-30T05:49:59;98161.31;;;16.35;80.53
46506;BME280;32220;49.808;9.968;2023-08-30T05:52:26;98163.28;;;16.42;80.39
46506;BME280;32220;49.808;9.968;2023-08-30T05:54:54;98156.19;;;16.51;80.01
46506;BME280;32220;49.808;9.968;2023-08-30T05:57:21;98165.97;;;16.60;79.92
46506;BME280;32220;49.808;9.968;2023-08-30T05:59:51;98167.47;;;16.72;79.83
46506;BME280;32220;49.808;9.968;2023-08-30T06:02:19;98174.56;;;16.81;79.85
46506;BME280;32220;49.808;9.968;2023-08-30T06:04:47;98187.06;;;16.91;79.55
46506;BME280;32220;49.808;9.968;2023-08-30T06:07:15;98178.41;;;16.97;79.23
46506;BME280;32220;49.808;9.968;2023-08-30T06:09:42;98168.78;;;17.04;79.47
46506;BME280;32220;49.808;9.968;2023-08-30T06:12:10;98174.34;;;17.10;78.89
46506;BME280;32220;49.808;9.968;2023-08-30T06:14:37;98170.22;;;17.16;79.03
46506;BME280;32220;49.808;9.968;2023-08-30T06:17:05;98172.13;;;17.23;78.80
46506;BME280;32220;49.808;9.968;2023-08-30T06:19:34;98171.34;;;17.31;78.68
46506;BME280;32220;49.808;9.968;2023-08-30T06:22:01;98176.09;;;17.37;78.58
46506;BME280;32220;49.808;9.968;2023-08-30T06:24:29;98173.47;;;17.45;78.04
46506;BME280;32220;49.808;9.968;2023-08-30T06:26:56;98165.81;;;17.50;77.96
46506;BME280;32220;49.808;9.968;2023-08-30T06:29:26;98159.31;;;17.53;77.47
46506;BME280;32220;49.808;9.968;2023-08-30T06:31:53;98166.28;;;17.64;77.37
46506;BME280;32220;49.808;9.968;2023-08-30T06:34:21;98163.13;;;17.68;77.68
46506;BME280;32220;49.808;9.968;2023-08-30T06:36:50;98171.56;;;17.81;77.22
46506;BME280;32220;49.808;9.968;2023-08-30T06:39:17;98158.19;;;17.81;76.78
46506;BME280;32220;49.808;9.968;2023-08-30T06:41:46;98168.16;;;17.97;76.85
46506;BME280;32220;49.808;9.968;2023-08-30T06:44:14;98170.06;;;18.05;76.46
46506;BME280;32220;49.808;9.968;2023-08-30T06:46:43;98170.25;;;18.11;76.14
46506;BME280;32220;49.808;9.968;2023-08-30T06:49:10;98168.78;;;18.17;75.87
46506;BME280;32220;49.808;9.968;2023-08-30T06:51:38;98146.50;;;18.16;75.72
46506;BME280;32220;49.808;9.968;2023-08-30T06:54:06;98154.44;;;18.34;75.73
46506;BME280;32220;49.808;9.968;2023-08-30T06:56:34;98161.34;;;18.45;75.27
46506;BME280;32220;49.808;9.968;2023-08-30T06:59:01;98165.41;;;18.57;74.92
46506;BME280;32220;49.808;9.968;2023-08-30T07:01:29;98159.75;;;18.68;74.43
46506;BME280;32220;49.808;9.968;2023-08-30T07:03:56;98148.06;;;18.85;74.42
46506;BME280;32220;49.808;9.968;2023-08-30T07:06:24;98149.09;;;19.00;73.55
46506;BME280;32220;49.808;9.968;2023-08-30T07:08:56;98143.09;;;19.15;73.02
46506;BME280;32220;49.808;9.968;2023-08-30T07:11:24;98148.28;;;19.41;73.17
46506;BME280;32220;49.808;9.968;2023-08-30T07:13:52;98133.88;;;19.50;72.26
46506;BME280;32220;49.808;9.968;2023-08-30T07:16:19;98160.53;;;19.76;71.00
46506;BME280;32220;49.808;9.968;2023-08-30T07:18:47;98168.53;;;19.92;70.80
46506;BME280;32220;49.808;9.968;2023-08-30T07:21:14;98161.28;;;20.08;70.09
46506;BME280;32220;49.808;9.968;2023-08-30T07:23:42;98167.28;;;20.19;69.60
46506;BME280;32220;49.808;9.968;2023-08-30T07:26:09;98167.75;;;20.30;69.44
46506;BME280;32220;49.808;9.968;2023-08-30T07:28:38;98161.38;;;20.39;69.12
46506;BME280;32220;49.808;9.968;2023-08-30T07:31:06;98150.78;;;20.38;68.17
46506;BME280;32220;49.808;9.968;2023-08-30T07:33:33;98162.97;;;20.57;68.14
46506;BME280;32220;49.808;9.968;2023-08-30T07:36:01;98171.31;;;20.70;67.49
46506;BME280;32220;49.808;9.968;2023-08-30T07:38:29;98160.78;;;20.83;67.19
46506;BME280;32220;49.808;9.968;2023-08-30T07:40:56;98154.31;;;21.00;66.90
46506;BME280;32220;49.808;9.968;2023-08-30T07:43:24;98161.59;;;21.14;66.50
46506;BME280;32220;49.808;9.968;2023-08-30T07:45:53;98172.34;;;21.23;65.05
46506;BME280;32220;49.808;9.968;2023-08-30T07:48:20;98167.25;;;21.28;65.13
46506;BME280;32220;49.808;9.968;2023-08-30T07:50:48;98169.50;;;21.39;65.46
46506;BME280;32220;49.808;9.968;2023-08-30T07:53:15;98175.13;;;21.52;65.29
46506;BME280;32220;49.808;9.968;2023-08-30T07:55:43;98134.56;;;21.31;64.86
46506;BME280;32220;49.808;9.968;2023-08-30T07:58:14;98175.72;;;21.62;65.02
46506;BME280;32220;49.808;9.968;2023-08-30T08:00:42;98179.06;;;21.64;64.75
46506;BME280;32220;49.808;9.968;2023-08-30T08:03:11;98172.28;;;21.68;64.69
46506;BME280;32220;49.808;9.968;2023-08-30T08:05:38;98180.50;;;21.75;64.54
46506;BME280;32220;49.808;9.968;2023-08-30T08:08:08;98170.56;;;21.75;63.74
46506;BME280;32220;49.808;9.968;2023-08-30T08:10:37;98169.97;;;21.80;62.99
46506;BME280;32220;49.808;9.968;2023-08-30T08:13:04;98166.66;;;21.93;63.45
46506;BME280;32220;49.808;9.968;2023-08-30T08:15:32;98177.66;;;22.06;63.08
46506;BME280;32220;49.808;9.968;2023-08-30T08:18:00;98180.75;;;22.17;62.90
46506;BME280;32220;49.808;9.968;2023-08-30T08:20:30;98181.13;;;22.29;62.58
46506;BME280;32220;49.808;9.968;2023-08-30T08:22:57;98176.38;;;22.31;61.81
46506;BME280;32220;49.808;9.968;2023-08-30T08:25:25;98167.16;;;22.40;62.16
46506;BME280;32220;49.808;9.968;2023-08-30T08:27:52;98174.22;;;22.56;61.64
46506;BME280;32220;49.808;9.968;2023-08-30T08:30:20;98166.38;;;23.33;61.43
46506;BME280;32220;49.808;9.968;2023-08-30T08:32:48;98186.41;;;24.16;58.14
46506;BME280;32220;49.808;9.968;2023-08-30T08:35:16;98172.69;;;24.52;57.04
46506;BME280;32220;49.808;9.968;2023-08-30T08:37:45;98201.81;;;24.91;54.38
46506;BME280;32220;49.808;9.968;2023-08-30T08:40:13;98202.34;;;25.14;53.85
46506;BME280;32220;49.808;9.968;2023-08-30T08:42:41;98196.78;;;25.42;52.86
46506;BME280;32220;49.808;9.968;2023-08-30T08:45:10;98190.34;;;25.76;52.53
46506;BME280;32220;49.808;9.968;2023-08-30T08:47:38;98197.66;;;26.08;52.18
46506;BME280;32220;49.808;9.968;2023-08-30T08:50:06;98194.31;;;26.33;50.32
46506;BME280;32220;49.808;9.968;2023-08-30T08:52:34;98200.25;;;26.61;50.07
46506;BME280;32220;49.808;9.968;2023-08-30T08:55:03;98203.31;;;26.84;49.71
46506;BME280;32220;49.808;9.968;2023-08-30T08:57:31;98204.09;;;27.05;48.83
46506;BME280;32220;49.808;9.968;2023-08-30T08:59:59;98208.16;;;27.27;48.01
46506;BME280;32220;49.808;9.968;2023-08-30T09:02:27;98202.03;;;27.70;47.59
46506;BME280;32220;49.808;9.968;2023-08-30T09:04:56;98203.59;;;28.09;48.28
46506;BME280;32220;49.808;9.968;2023-08-30T09:07:24;98210.16;;;28.01;46.42
46506;BME280;32220;49.808;9.968;2023-08-30T09:09:52;98225.25;;;28.47;43.99
46506;BME280;32220;49.808;9.968;2023-08-30T09:12:22;98234.06;;;29.04;43.97
46506;BME280;32220;49.808;9.968;2023-08-30T09:14:54;98223.03;;;29.58;44.67
46506;BME280;32220;49.808;9.968;2023-08-30T09:17:22;98225.00;;;29.93;42.34
46506;BME280;32220;49.808;9.968;2023-08-30T09:19:49;98237.69;;;30.29;41.34
46506;BME280;32220;49.808;9.968;2023-08-30T09:22:17;98242.41;;;30.33;40.79
46506;BME280;32220;49.808;9.968;2023-08-30T09:24:44;98242.16;;;30.00;41.34
46506;BME280;32220;49.808;9.968;2023-08-30T09:27:11;98231.63;;;29.74;42.07
46506;BME280;32220;49.808;9.968;2023-08-30T09:29:40;98232.16;;;29.52;41.31
46506;BME280;32220;49.808;9.968;2023-08-30T09:32:10;98242.94;;;29.47;41.88
46506;BME280;32220;49.808;9.968;2023-08-30T09:34:45;98240.16;;;29.65;42.22
46506;BME280;32220;49.808;9.968;2023-08-30T09:37:19;98226.38;;;30.14;42.25
46506;BME280;32220;49.808;9.968;2023-08-30T09:39:49;98226.25;;;30.67;40.25
46506;BME280;32220;49.808;9.968;2023-08-30T09:42:17;98236.06;;;30.91;39.36
46506;BME280;32220;49.808;9.968;2023-08-30T09:44:46;98226.84;;;30.69;40.57
46506;BME280;32220;49.808;9.968;2023-08-30T09:47:14;98212.03;;;30.65;40.27
46506;BME280;32220;49.808;9.968;2023-08-30T09:49:44;98217.25;;;30.55;39.88
46506;BME280;32220;49.808;9.968;2023-08-30T09:52:14;98226.84;;;30.46;39.20
46506;BME280;32220;49.808;9.968;2023-08-30T09:54:42;98212.25;;;30.28;39.95
46506;BME280;32220;49.808;9.968;2023-08-30T09:57:10;98212.13;;;30.47;39.96
46506;BME280;32220;49.808;9.968;2023-08-30T09:59:39;98216.16;;;30.67;39.37
46506;BME280;32220;49.808;9.968;2023-08-30T10:02:09;98215.22;;;30.74;39.47
46506;BME280;32220;49.808;9.968;2023-08-30T10:04:38;98199.50;;;30.69;40.67
46506;BME280;32220;49.808;9.968;2023-08-30T10:07:06;98187.44;;;30.53;40.64
46506;BME280;32220;49.808;9.968;2023-08-30T10:09:37;98189.56;;;30.51;40.12
46506;BME280;32220;49.808;9.968;2023-08-30T10:12:06;98184.69;;;30.65;40.66
46506;BME280;32220;49.808;9.968;2023-08-30T10:14:34;98187.66;;;30.52;39.01
46506;BME280;32220;49.808;9.968;2023-08-30T10:17:03;98179.94;;;30.25;39.54
46506;BME280;32220;49.808;9.968;2023-08-30T10:19:33;98187.56;;;30.00;39.15
46506;BME280;32220;49.808;9.968;2023-08-30T10:22:02;98178.66;;;29.51;40.56
46506;BME280;32220;49.808;9.968;2023-08-30T10:24:32;98181.34;;;29.40;40.41
46506;BME280;32220;49.808;9.968;2023-08-30T10:27:05;98185.19;;;29.32;40.18
46506;BME280;32220;49.808;9.968;2023-08-30T10:29:35;98178.06;;;29.31;40.98
46506;BME280;32220;49.808;9.968;2023-08-30T10:32:03;98175.50;;;29.36;40.21
46506;BME280;32220;49.808;9.968;2023-08-30T10:34:36;98167.75;;;29.51;40.34
46506;BME280;32220;49.808;9.968;2023-08-30T10:37:07;98172.84;;;30.01;40.48
46506;BME280;32220;49.808;9.968;2023-08-30T10:39:35;98161.50;;;30.56;40.48
46506;BME280;32220;49.808;9.968;2023-08-30T10:42:10;98175.56;;;30.99;39.15
46506;BME280;32220;49.808;9.968;2023-08-30T10:44:48;98185.25;;;31.19;37.79
46506;BME280;32220;49.808;9.968;2023-08-30T10:47:19;98176.22;;;31.06;38.14
46506;BME280;32220;49.808;9.968;2023-08-30T10:49:48;98179.19;;;31.05;37.75
46506;BME280;32220;49.808;9.968;2023-08-30T10:52:16;98183.44;;;30.84;37.50
46506;BME280;32220;49.808;9.968;2023-08-30T10:54:43;98171.50;;;30.62;38.39
46506;BME280;32220;49.808;9.968;2023-08-30T10:57:15;98163.28;;;30.62;38.15
46506;BME280;32220;49.808;9.968;2023-08-30T11:00:03;98170.56;;;30.96;37.81
46506;BME280;32220;49.808;9.968;2023-08-30T11:02:32;98166.03;;;31.02;37.87
46506;BME280;32220;49.808;9.968;2023-08-30T11:05:01;98169.28;;;31.27;36.74
46506;BME280;32220;49.808;9.968;2023-08-30T11:07:29;98155.72;;;31.49;37.63
46506;BME280;32220;49.808;9.968;2023-08-30T11:09:57;98181.00;;;31.56;35.66
46506;BME280;32220;49.808;9.968;2023-08-30T11:12:25;98167.41;;;31.16;36.80
46506;BME280;32220;49.808;9.968;2023-08-30T11:14:54;98169.34;;;30.64;36.91
46506;BME280;32220;49.808;9.968;2023-08-30T11:17:21;98157.50;;;30.00;38.70
46506;BME280;32220;49.808;9.968;2023-08-30T11:19:51;98158.84;;;29.56;38.60
46506;BME280;32220;49.808;9.968;2023-08-30T11:22:20;98164.06;;;29.16;38.47
46506;BME280;32220;49.808;9.968;2023-08-30T11:24:48;98147.00;;;28.90;39.36
46506;BME280;32220;49.808;9.968;2023-08-30T11:27:17;98147.97;;;28.78;39.38
46506;BME280;32220;49.808;9.968;2023-08-30T11:29:44;98146.25;;;28.65;39.10
46506;BME280;32220;49.808;9.968;2023-08-30T11:32:12;98154.72;;;28.57;39.51
46506;BME280;32220;49.808;9.968;2023-08-30T11:34:39;98139.56;;;28.61;40.00
46506;BME280;32220;49.808;9.968;2023-08-30T11:37:07;98146.59;;;28.69;39.70
46506;BME280;32220;49.808;9.968;2023-08-30T11:39:37;98141.06;;;28.75;39.69
46506;BME280;32220;49.808;9.968;2023-08-30T11:42:05;98135.16;;;29.26;39.84
46506;BME280;32220;49.808;9.968;2023-08-30T11:44:34;98154.59;;;29.72;37.81
46506;BME280;32220;49.808;9.968;2023-08-30T11:47:03;98138.97;;;30.25;38.98
46506;BME280;32220;49.808;9.968;2023-08-30T11:49:31;98140.72;;;30.95;38.57
46506;BME280;32220;49.808;9.968;2023-08-30T11:52:00;98128.94;;;31.51;36.83
46506;BME280;32220;49.808;9.968;2023-08-30T11:54:29;98146.19;;;32.19;36.10
46506;BME280;32220;49.808;9.968;2023-08-30T11:56:58;98151.06;;;32.33;35.07
46506;BME280;32220;49.808;9.968;2023-08-30T11:59:25;98149.25;;;32.39;35.29
46506;BME280;32220;49.808;9.968;2023-08-30T12:01:53;98149.19;;;32.56;35.44
46506;BME280;32220;49.808;9.968;2023-08-30T12:04:20;98150.50;;;33.18;34.31
46506;BME280;32220;49.808;9.968;2023-08-30T12:06:51;98140.91;;;34.07;33.85
46506;BME280;32220;49.808;9.968;2023-08-30T12:09:19;98154.81;;;34.79;32.52
46506;BME280;32220;49.808;9.968;2023-08-30T12:11:48;98160.69;;;35.13;30.71
46506;BME280;32220;49.808;9.968;2023-08-30T12:14:17;98147.50;;;35.15;30.56
46506;BME280;32220;49.808;9.968;2023-08-30T12:16:44;98156.88;;;35.19;30.34
46506;BME280;32220;49.808;9.968;2023-08-30T12:19:14;98161.00;;;34.49;30.83
46506;BME280;32220;49.808;9.968;2023-08-30T12:21:44;98152.19;;;33.46;32.41
46506;BME280;32220;49.808;9.968;2023-08-30T12:24:14;98129.84;;;32.45;33.22
46506;BME280;32220;49.808;9.968;2023-08-30T12:26:41;98121.72;;;31.78;35.33
46506;BME280;32220;49.808;9.968;2023-08-30T12:29:09;98112.38;;;31.13;35.86
46506;BME280;32220;49.808;9.968;2023-08-30T12:31:37;98110.66;;;30.55;36.52
46506;BME280;32220;49.808;9.968;2023-08-30T12:34:05;98111.47;;;30.04;36.71
46506;BME280;32220;49.808;9.968;2023-08-30T12:36:32;98093.09;;;29.46;37.07
46506;BME280;32220;49.808;9.968;2023-08-30T12:39:00;98093.84;;;29.11;37.80
46506;BME280;32220;49.808;9.968;2023-08-30T12:41:28;98092.63;;;28.77;38.69
46506;BME280;32220;49.808;9.968;2023-08-30T12:43:55;98094.78;;;28.57;38.64
46506;BME280;32220;49.808;9.968;2023-08-30T12:46:23;98078.00;;;28.23;38.74
46506;BME280;32220;49.808;9.968;2023-08-30T12:48:52;98077.38;;;28.03;40.59
46506;BME280;32220;49.808;9.968;2023-08-30T12:51:19;98084.53;;;27.79;40.98
46506;BME280;32220;49.808;9.968;2023-08-30T12:53:47;98094.84;;;27.46;41.36
46506;BME280;32220;49.808;9.968;2023-08-30T12:56:14;98071.91;;;26.79;42.07
46506;BME280;32220;49.808;9.968;2023-08-30T12:58:41;98056.09;;;26.18;44.19
46506;BME280;32220;49.808;9.968;2023-08-30T13:01:09;98052.88;;;25.70;45.99
46506;BME280;32220;49.808;9.968;2023-08-30T13:03:36;98042.03;;;25.44;46.88
46506;BME280;32220;49.808;9.968;2023-08-30T13:06:05;98036.41;;;25.32;47.51
46506;BME280;32220;49.808;9.968;2023-08-30T13:08:33;98014.53;;;25.20;48.72